sensor_id;sensor_type;location;lat;lon;timestamp;P1;durP1;ratioP1;P2;durP2;ratioP2
51146;SDS011;37207;53.060;18.726;2022-10-26T00:00:44;49.50;;;36.40;;
51146;SDS011;37207;53.060;18.726;2022-10-26T00:03:30;47.00;;;34.70;;
51146;SDS011;37207;53.060;18.726;2022-10-26T00:06:18;52.60;;;37.20;;
51146;SDS011;37207;53.060;18.726;2022-10-26T00:08:47;40.20;;;28.50;;
51146;SDS011;37207;53.060;18.726;2022-10-26T00:11:14;33.80;;;22.20;;
51146;SDS011;37207;53.060;18.726;2022-10-26T00:13:41;23.60;;;18.30;;
51146;SDS011;37207;53.060;18.726;2022-10-26T00:16:12;21.90;;;18.80;;
51146;SDS011;37207;53.060;18.726;2022-10-26T00:18:41;35.70;;;25.80;;
51146;SDS011;37207;53.060;18.726;2022-10-26T00:21:09;52.10;;;30.40;;
51146;SDS011;37207;53.060;18.726;2022-10-26T00:23:36;61.30;;;36.40;;
51146;SDS011;37207;53.060;18.726;2022-10-26T00:26:03;47.70;;;32.00;;
51146;SDS011;37207;53.060;18.726;2022-10-26T00:28:30;39.00;;;29.00;;
51146;SDS011;37207;53.060;18.726;2022-10-26T00:31:01;25.80;;;21.70;;
51146;SDS011;37207;53.060;18.726;2022-10-26T00:33:29;23.90;;;19.50;;
51146;SDS011;37207;53.060;18.726;2022-10-26T00:35:56;23.90;;;20.30;;
51146;SDS011;37207;53.060;18.726;2022-10-26T00:38:23;20.60;;;18.50;;
51146;SDS011;37207;53.060;18.726;2022-10-26T00:40:49;21.30;;;18.60;;
51146;SDS011;37207;53.060;18.726;2022-10-26T00:45:46;24.70;;;18.10;;
51146;SDS011;37207;53.060;18.726;2022-10-26T00:50:51;33.20;;;21.80;;
51146;SDS011;37207;53.060;18.726;2022-10-26T00:53:20;34.30;;;22.30;;
51146;SDS011;37207;53.060;18.726;2022-10-26T00:55:48;50.20;;;23.40;;
51146;SDS011;37207;53.060;18.726;2022-10-26T00:58:17;36.40;;;23.90;;
51146;SDS011;37207;53.060;18.726;2022-10-26T01:00:46;53.80;;;23.90;;
51146;SDS011;37207;53.060;18.726;2022-10-26T01:03:13;50.80;;;24.10;;
51146;SDS011;37207;53.060;18.726;2022-10-26T01:05:42;42.30;;;25.00;;
51146;SDS011;37207;53.060;18.726;2022-10-26T01:08:12;49.90;;;25.60;;
51146;SDS011;37207;53.060;18.726;2022-10-26T01:10:41;74.00;;;25.70;;
51146;SDS011;37207;53.060;18.726;2022-10-26T01:13:09;131.40;;;28.60;;
51146;SDS011;37207;53.060;18.726;2022-10-26T01:18:19;71.00;;;28.60;;
51146;SDS011;37207;53.060;18.726;2022-10-26T01:26:32;53.20;;;30.10;;
51146;SDS011;37207;53.060;18.726;2022-10-26T01:31:59;53.00;;;29.40;;
51146;SDS011;37207;53.060;18.726;2022-10-26T01:34:33;62.60;;;29.50;;
51146;SDS011;37207;53.060;18.726;2022-10-26T01:37:08;55.00;;;29.30;;
51146;SDS011;37207;53.060;18.726;2022-10-26T01:39:46;53.20;;;29.20;;
51146;SDS011;37207;53.060;18.726;2022-10-26T01:42:17;79.80;;;27.80;;
51146;SDS011;37207;53.060;18.726;2022-10-26T01:44:51;60.80;;;29.80;;
51146;SDS011;37207;53.060;18.726;2022-10-26T01:47:22;68.70;;;29.60;;
51146;SDS011;37207;53.060;18.726;2022-10-26T01:49:55;65.60;;;32.20;;
51146;SDS011;37207;53.060;18.726;2022-10-26T01:52:24;73.90;;;32.70;;
51146;SDS011;37207;53.060;18.726;2022-10-26T01:54:58;66.10;;;35.00;;
51146;SDS011;37207;53.060;18.726;2022-10-26T01:57:26;82.20;;;30.50;;
51146;SDS011;37207;53.060;18.726;2022-10-26T01:59:59;76.10;;;30.10;;
51146;SDS011;37207;53.060;18.726;2022-10-26T02:08:39;92.20;;;28.20;;
51146;SDS011;37207;53.060;18.726;2022-10-26T02:11:37;143.30;;;30.20;;
51146;SDS011;37207;53.060;18.726;2022-10-26T02:14:24;121.70;;;28.90;;
51146;SDS011;37207;53.060;18.726;2022-10-26T02:19:59;130.10;;;29.10;;
51146;SDS011;37207;53.060;18.726;2022-10-26T02:22:40;115.30;;;30.90;;
51146;SDS011;37207;53.060;18.726;2022-10-26T02:25:11;102.60;;;30.80;;
51146;SDS011;37207;53.060;18.726;2022-10-26T02:27:44;88.50;;;30.40;;
51146;SDS011;37207;53.060;18.726;2022-10-26T02:30:15;64.50;;;26.70;;
51146;SDS011;37207;53.060;18.726;2022-10-26T02:32:44;77.00;;;30.80;;
51146;SDS011;37207;53.060;18.726;2022-10-26T02:35:15;148.40;;;31.90;;
51146;SDS011;37207;53.060;18.726;2022-10-26T02:37:45;89.40;;;30.20;;
51146;SDS011;37207;53.060;18.726;2022-10-26T02:40:15;100.60;;;30.30;;
51146;SDS011;37207;53.060;18.726;2022-10-26T02:42:44;157.80;;;33.40;;
51146;SDS011;37207;53.060;18.726;2022-10-26T02:45:14;142.50;;;34.10;;
51146;SDS011;37207;53.060;18.726;2022-10-26T02:47:45;116.20;;;32.10;;
51146;SDS011;37207;53.060;18.726;2022-10-26T02:50:12;123.70;;;33.50;;
51146;SDS011;37207;53.060;18.726;2022-10-26T02:55:17;184.50;;;32.60;;
51146;SDS011;37207;53.060;18.726;2022-10-26T02:57:59;109.60;;;29.70;;
51146;SDS011;37207;53.060;18.726;2022-10-26T03:00:29;125.50;;;31.50;;
51146;SDS011;37207;53.060;18.726;2022-10-26T03:02:57;96.20;;;30.90;;
51146;SDS011;37207;53.060;18.726;2022-10-26T03:05:25;124.50;;;33.20;;
51146;SDS011;37207;53.060;18.726;2022-10-26T03:07:54;103.50;;;35.80;;
51146;SDS011;37207;53.060;18.726;2022-10-26T03:10:21;138.90;;;31.80;;
51146;SDS011;37207;53.060;18.726;2022-10-26T03:12:48;97.30;;;32.10;;
51146;SDS011;37207;53.060;18.726;2022-10-26T03:15:15;130.30;;;31.40;;
51146;SDS011;37207;53.060;18.726;2022-10-26T03:17:42;168.70;;;32.10;;
51146;SDS011;37207;53.060;18.726;2022-10-26T03:20:09;140.10;;;29.80;;
51146;SDS011;37207;53.060;18.726;2022-10-26T03:22:36;140.00;;;28.60;;
51146;SDS011;37207;53.060;18.726;2022-10-26T03:25:02;162.20;;;27.30;;
51146;SDS011;37207;53.060;18.726;2022-10-26T03:27:29;112.50;;;26.00;;
51146;SDS011;37207;53.060;18.726;2022-10-26T03:29:56;129.00;;;24.80;;
51146;SDS011;37207;53.060;18.726;2022-10-26T03:32:23;133.00;;;25.00;;
51146;SDS011;37207;53.060;18.726;2022-10-26T03:34:49;110.00;;;25.40;;
51146;SDS011;37207;53.060;18.726;2022-10-26T03:37:16;105.40;;;25.10;;
51146;SDS011;37207;53.060;18.726;2022-10-26T03:39:43;92.90;;;24.80;;
51146;SDS011;37207;53.060;18.726;2022-10-26T03:42:09;84.00;;;23.60;;
51146;SDS011;37207;53.060;18.726;2022-10-26T03:44:36;79.20;;;23.70;;
51146;SDS011;37207;53.060;18.726;2022-10-26T03:47:02;105.00;;;26.20;;
51146;SDS011;37207;53.060;18.726;2022-10-26T03:49:29;104.50;;;25.70;;
51146;SDS011;37207;53.060;18.726;2022-10-26T03:51:55;83.60;;;25.90;;
51146;SDS011;37207;53.060;18.726;2022-10-26T03:54:22;76.20;;;25.40;;
51146;SDS011;37207;53.060;18.726;2022-10-26T03:56:48;70.20;;;27.90;;
51146;SDS011;37207;53.060;18.726;2022-10-26T03:59:15;59.80;;;26.50;;
51146;SDS011;37207;53.060;18.726;2022-10-26T04:01:42;44.70;;;26.70;;
51146;SDS011;37207;53.060;18.726;2022-10-26T04:04:08;58.60;;;27.40;;
51146;SDS011;37207;53.060;18.726;2022-10-26T04:06:35;76.00;;;31.00;;
51146;SDS011;37207;53.060;18.726;2022-10-26T04:09:02;85.20;;;30.90;;
51146;SDS011;37207;53.060;18.726;2022-10-26T04:11:29;71.00;;;26.80;;
51146;SDS011;37207;53.060;18.726;2022-10-26T04:13:56;71.70;;;30.90;;
51146;SDS011;37207;53.060;18.726;2022-10-26T04:16:25;89.50;;;33.80;;
51146;SDS011;37207;53.060;18.726;2022-10-26T04:18:52;55.30;;;34.00;;
51146;SDS011;37207;53.060;18.726;2022-10-26T04:21:19;237.30;;;145.90;;
51146;SDS011;37207;53.060;18.726;2022-10-26T04:23:46;179.70;;;105.30;;
51146;SDS011;37207;53.060;18.726;2022-10-26T04:26:12;221.90;;;118.60;;
51146;SDS011;37207;53.060;18.726;2022-10-26T04:28:39;143.00;;;68.60;;
51146;SDS011;37207;53.060;18.726;2022-10-26T04:31:05;107.10;;;52.60;;
51146;SDS011;37207;53.060;18.726;2022-10-26T04:33:32;81.20;;;40.20;;
51146;SDS011;37207;53.060;18.726;2022-10-26T04:35:58;82.20;;;39.50;;
51146;SDS011;37207;53.060;18.726;2022-10-26T04:38:26;66.30;;;37.10;;
51146;SDS011;37207;53.060;18.726;2022-10-26T04:40:53;63.40;;;33.00;;
51146;SDS011;37207;53.060;18.726;2022-10-26T04:43:19;98.10;;;34.00;;
51146;SDS011;37207;53.060;18.726;2022-10-26T04:45:46;79.50;;;38.40;;
51146;SDS011;37207;53.060;18.726;2022-10-26T04:48:13;97.60;;;43.40;;
51146;SDS011;37207;53.060;18.726;2022-10-26T04:50:40;85.40;;;45.20;;
51146;SDS011;37207;53.060;18.726;2022-10-26T04:53:07;85.00;;;43.70;;
51146;SDS011;37207;53.060;18.726;2022-10-26T04:55:34;50.70;;;32.40;;
51146;SDS011;37207;53.060;18.726;2022-10-26T04:58:01;66.70;;;37.40;;
51146;SDS011;37207;53.060;18.726;2022-10-26T05:00:29;49.70;;;34.10;;
51146;SDS011;37207;53.060;18.726;2022-10-26T05:02:58;58.60;;;34.70;;
51146;SDS011;37207;53.060;18.726;2022-10-26T05:05:29;57.30;;;35.00;;
51146;SDS011;37207;53.060;18.726;2022-10-26T05:10:28;119.70;;;38.90;;
51146;SDS011;37207;53.060;18.726;2022-10-26T05:12:56;87.70;;;40.30;;
51146;SDS011;37207;53.060;18.726;2022-10-26T05:15:28;66.50;;;37.40;;
51146;SDS011;37207;53.060;18.726;2022-10-26T05:18:01;53.10;;;35.20;;
51146;SDS011;37207;53.060;18.726;2022-10-26T05:20:35;47.80;;;32.80;;
51146;SDS011;37207;53.060;18.726;2022-10-26T05:23:06;46.80;;;32.10;;
51146;SDS011;37207;53.060;18.726;2022-10-26T05:25:40;55.70;;;33.70;;
51146;SDS011;37207;53.060;18.726;2022-10-26T05:28:11;106.50;;;43.80;;
51146;SDS011;37207;53.060;18.726;2022-10-26T05:30:44;283.70;;;51.70;;
51146;SDS011;37207;53.060;18.726;2022-10-26T05:33:16;278.20;;;50.00;;
51146;SDS011;37207;53.060;18.726;2022-10-26T05:35:47;287.90;;;39.20;;
51146;SDS011;37207;53.060;18.726;2022-10-26T05:38:18;178.40;;;35.90;;
51146;SDS011;37207;53.060;18.726;2022-10-26T05:40:50;177.40;;;35.60;;
51146;SDS011;37207;53.060;18.726;2022-10-26T05:43:23;164.40;;;32.00;;
51146;SDS011;37207;53.060;18.726;2022-10-26T05:45:53;227.40;;;32.20;;
51146;SDS011;37207;53.060;18.726;2022-10-26T05:48:23;207.70;;;31.70;;
51146;SDS011;37207;53.060;18.726;2022-10-26T05:50:59;313.60;;;31.80;;
51146;SDS011;37207;53.060;18.726;2022-10-26T05:53:30;333.00;;;32.00;;
51146;SDS011;37207;53.060;18.726;2022-10-26T05:55:59;246.40;;;34.20;;
51146;SDS011;37207;53.060;18.726;2022-10-26T05:58:30;309.60;;;33.60;;
51146;SDS011;37207;53.060;18.726;2022-10-26T06:06:10;183.50;;;27.30;;
51146;SDS011;37207;53.060;18.726;2022-10-26T06:11:05;97.40;;;27.20;;
51146;SDS011;37207;53.060;18.726;2022-10-26T06:13:33;139.00;;;30.30;;
51146;SDS011;37207;53.060;18.726;2022-10-26T06:24:08;153.10;;;49.60;;
51146;SDS011;37207;53.060;18.726;2022-10-26T06:30:00;110.50;;;38.00;;
51146;SDS011;37207;53.060;18.726;2022-10-26T06:32:28;128.30;;;31.60;;
51146;SDS011;37207;53.060;18.726;2022-10-26T06:37:34;64.00;;;30.90;;
51146;SDS011;37207;53.060;18.726;2022-10-26T06:42:30;99.30;;;29.80;;
51146;SDS011;37207;53.060;18.726;2022-10-26T06:45:01;54.60;;;26.80;;
51146;SDS011;37207;53.060;18.726;2022-10-26T06:47:39;88.30;;;27.80;;
51146;SDS011;37207;53.060;18.726;2022-10-26T06:55:59;96.60;;;33.40;;
51146;SDS011;37207;53.060;18.726;2022-10-26T06:58:31;181.60;;;34.60;;
51146;SDS011;37207;53.060;18.726;2022-10-26T07:01:06;145.30;;;36.10;;
51146;SDS011;37207;53.060;18.726;2022-10-26T07:03:40;173.20;;;31.30;;
51146;SDS011;37207;53.060;18.726;2022-10-26T07:06:10;205.70;;;30.40;;
51146;SDS011;37207;53.060;18.726;2022-10-26T07:08:40;156.10;;;32.10;;
51146;SDS011;37207;53.060;18.726;2022-10-26T07:11:10;101.80;;;30.20;;
51146;SDS011;37207;53.060;18.726;2022-10-26T07:13:40;151.80;;;25.50;;
51146;SDS011;37207;53.060;18.726;2022-10-26T07:16:11;130.30;;;23.60;;
51146;SDS011;37207;53.060;18.726;2022-10-26T07:18:41;110.80;;;23.70;;
51146;SDS011;37207;53.060;18.726;2022-10-26T07:21:12;108.20;;;25.30;;
51146;SDS011;37207;53.060;18.726;2022-10-26T07:23:42;101.50;;;24.50;;
51146;SDS011;37207;53.060;18.726;2022-10-26T07:26:12;58.10;;;24.30;;
51146;SDS011;37207;53.060;18.726;2022-10-26T07:28:46;34.60;;;26.90;;
51146;SDS011;37207;53.060;18.726;2022-10-26T07:31:19;58.40;;;32.90;;
51146;SDS011;37207;53.060;18.726;2022-10-26T07:33:49;77.00;;;36.10;;
51146;SDS011;37207;53.060;18.726;2022-10-26T07:36:19;99.80;;;39.30;;
51146;SDS011;37207;53.060;18.726;2022-10-26T07:38:51;123.40;;;40.60;;
51146;SDS011;37207;53.060;18.726;2022-10-26T07:41:22;60.70;;;37.20;;
51146;SDS011;37207;53.060;18.726;2022-10-26T07:43:53;76.40;;;46.00;;
51146;SDS011;37207;53.060;18.726;2022-10-26T07:46:26;78.00;;;37.00;;
51146;SDS011;37207;53.060;18.726;2022-10-26T07:48:56;79.30;;;37.60;;
51146;SDS011;37207;53.060;18.726;2022-10-26T07:51:26;119.80;;;32.90;;
51146;SDS011;37207;53.060;18.726;2022-10-26T07:53:56;122.40;;;30.60;;
51146;SDS011;37207;53.060;18.726;2022-10-26T07:56:27;84.50;;;29.10;;
51146;SDS011;37207;53.060;18.726;2022-10-26T07:58:57;110.80;;;45.00;;
51146;SDS011;37207;53.060;18.726;2022-10-26T08:01:28;87.70;;;44.90;;
51146;SDS011;37207;53.060;18.726;2022-10-26T08:03:59;106.50;;;42.30;;
51146;SDS011;37207;53.060;18.726;2022-10-26T08:06:30;82.90;;;33.10;;
51146;SDS011;37207;53.060;18.726;2022-10-26T08:09:01;105.40;;;30.50;;
51146;SDS011;37207;53.060;18.726;2022-10-26T08:11:32;48.60;;;28.30;;
51146;SDS011;37207;53.060;18.726;2022-10-26T08:14:05;50.30;;;28.60;;
51146;SDS011;37207;53.060;18.726;2022-10-26T08:16:37;75.30;;;28.90;;
51146;SDS011;37207;53.060;18.726;2022-10-26T08:19:09;79.10;;;28.20;;
51146;SDS011;37207;53.060;18.726;2022-10-26T08:21:40;34.30;;;27.20;;
51146;SDS011;37207;53.060;18.726;2022-10-26T08:24:11;42.70;;;24.30;;
51146;SDS011;37207;53.060;18.726;2022-10-26T08:26:41;42.90;;;23.70;;
51146;SDS011;37207;53.060;18.726;2022-10-26T08:29:11;60.30;;;25.30;;
51146;SDS011;37207;53.060;18.726;2022-10-26T08:31:41;60.80;;;24.80;;
51146;SDS011;37207;53.060;18.726;2022-10-26T08:34:12;52.30;;;25.20;;
51146;SDS011;37207;53.060;18.726;2022-10-26T08:36:44;57.80;;;26.70;;
51146;SDS011;37207;53.060;18.726;2022-10-26T08:39:16;76.00;;;28.60;;
51146;SDS011;37207;53.060;18.726;2022-10-26T08:41:48;61.70;;;22.20;;
51146;SDS011;37207;53.060;18.726;2022-10-26T08:44:32;30.80;;;21.10;;
51146;SDS011;37207;53.060;18.726;2022-10-26T08:47:20;32.70;;;22.00;;
51146;SDS011;37207;53.060;18.726;2022-10-26T08:52:40;27.20;;;21.90;;
51146;SDS011;37207;53.060;18.726;2022-10-26T08:55:22;32.30;;;21.20;;
51146;SDS011;37207;53.060;18.726;2022-10-26T08:57:58;32.60;;;21.60;;
51146;SDS011;37207;53.060;18.726;2022-10-26T09:00:33;41.40;;;22.40;;
51146;SDS011;37207;53.060;18.726;2022-10-26T09:03:13;28.10;;;21.90;;
51146;SDS011;37207;53.060;18.726;2022-10-26T09:08:37;33.50;;;23.50;;
51146;SDS011;37207;53.060;18.726;2022-10-26T09:16:31;50.50;;;31.10;;
51146;SDS011;37207;53.060;18.726;2022-10-26T09:24:33;89.00;;;50.50;;
51146;SDS011;37207;53.060;18.726;2022-10-26T09:27:34;81.00;;;47.80;;
51146;SDS011;37207;53.060;18.726;2022-10-26T09:30:15;80.90;;;49.00;;
51146;SDS011;37207;53.060;18.726;2022-10-26T09:32:48;86.90;;;50.30;;
51146;SDS011;37207;53.060;18.726;2022-10-26T09:35:25;78.70;;;45.10;;
51146;SDS011;37207;53.060;18.726;2022-10-26T09:40:27;63.80;;;41.50;;
51146;SDS011;37207;53.060;18.726;2022-10-26T09:43:16;63.10;;;39.80;;
51146;SDS011;37207;53.060;18.726;2022-10-26T09:45:50;61.10;;;38.30;;
51146;SDS011;37207;53.060;18.726;2022-10-26T09:48:35;63.80;;;40.20;;
51146;SDS011;37207;53.060;18.726;2022-10-26T09:51:11;75.10;;;40.70;;
51146;SDS011;37207;53.060;18.726;2022-10-26T09:53:41;65.90;;;36.80;;
51146;SDS011;37207;53.060;18.726;2022-10-26T09:56:11;48.80;;;32.40;;
51146;SDS011;37207;53.060;18.726;2022-10-26T09:58:43;52.90;;;30.80;;
51146;SDS011;37207;53.060;18.726;2022-10-26T10:01:29;44.90;;;30.30;;
51146;SDS011;37207;53.060;18.726;2022-10-26T10:06:44;50.20;;;30.80;;
51146;SDS011;37207;53.060;18.726;2022-10-26T10:09:20;53.70;;;32.40;;
51146;SDS011;37207;53.060;18.726;2022-10-26T10:14:29;73.30;;;36.50;;
51146;SDS011;37207;53.060;18.726;2022-10-26T10:17:04;64.90;;;35.60;;
51146;SDS011;37207;53.060;18.726;2022-10-26T10:19:39;63.30;;;34.90;;
51146;SDS011;37207;53.060;18.726;2022-10-26T10:24:55;66.60;;;36.70;;
51146;SDS011;37207;53.060;18.726;2022-10-26T10:27:27;76.40;;;40.70;;
51146;SDS011;37207;53.060;18.726;2022-10-26T10:29:58;85.30;;;41.70;;
51146;SDS011;37207;53.060;18.726;2022-10-26T10:32:42;98.60;;;44.80;;
51146;SDS011;37207;53.060;18.726;2022-10-26T10:35:23;93.60;;;45.00;;
51146;SDS011;37207;53.060;18.726;2022-10-26T10:37:57;82.00;;;41.20;;
51146;SDS011;37207;53.060;18.726;2022-10-26T10:40:29;73.50;;;36.50;;
51146;SDS011;37207;53.060;18.726;2022-10-26T10:43:05;71.50;;;35.40;;
51146;SDS011;37207;53.060;18.726;2022-10-26T10:45:45;54.40;;;30.90;;
51146;SDS011;37207;53.060;18.726;2022-10-26T10:48:19;45.80;;;28.00;;
51146;SDS011;37207;53.060;18.726;2022-10-26T10:50:57;52.40;;;30.40;;
51146;SDS011;37207;53.060;18.726;2022-10-26T11:07:45;59.60;;;34.50;;
51146;SDS011;37207;53.060;18.726;2022-10-26T11:10:24;52.60;;;32.30;;
51146;SDS011;37207;53.060;18.726;2022-10-26T11:12:57;47.90;;;30.60;;
51146;SDS011;37207;53.060;18.726;2022-10-26T11:15:28;57.80;;;33.00;;
51146;SDS011;37207;53.060;18.726;2022-10-26T11:18:05;53.00;;;34.20;;
51146;SDS011;37207;53.060;18.726;2022-10-26T11:20:46;49.70;;;32.90;;
51146;SDS011;37207;53.060;18.726;2022-10-26T11:23:24;50.90;;;33.20;;
51146;SDS011;37207;53.060;18.726;2022-10-26T11:26:26;47.70;;;31.90;;
51146;SDS011;37207;53.060;18.726;2022-10-26T11:29:17;49.80;;;30.20;;
51146;SDS011;37207;53.060;18.726;2022-10-26T11:31:53;47.80;;;32.40;;
51146;SDS011;37207;53.060;18.726;2022-10-26T11:34:35;60.00;;;30.60;;
51146;SDS011;37207;53.060;18.726;2022-10-26T11:37:17;51.40;;;32.00;;
51146;SDS011;37207;53.060;18.726;2022-10-26T11:40:13;59.60;;;36.10;;
51146;SDS011;37207;53.060;18.726;2022-10-26T11:42:49;64.80;;;37.50;;
51146;SDS011;37207;53.060;18.726;2022-10-26T11:45:30;70.00;;;39.10;;
51146;SDS011;37207;53.060;18.726;2022-10-26T11:48:11;81.30;;;41.10;;
51146;SDS011;37207;53.060;18.726;2022-10-26T11:50:46;91.20;;;50.10;;
51146;SDS011;37207;53.060;18.726;2022-10-26T11:53:16;64.20;;;38.80;;
51146;SDS011;37207;53.060;18.726;2022-10-26T11:55:53;64.70;;;38.50;;
51146;SDS011;37207;53.060;18.726;2022-10-26T11:58:22;60.80;;;38.70;;
51146;SDS011;37207;53.060;18.726;2022-10-26T12:00:52;59.50;;;32.60;;
51146;SDS011;37207;53.060;18.726;2022-10-26T12:03:36;48.60;;;29.50;;
51146;SDS011;37207;53.060;18.726;2022-10-26T12:06:09;34.70;;;25.30;;
51146;SDS011;37207;53.060;18.726;2022-10-26T12:08:41;33.10;;;24.80;;
51146;SDS011;37207;53.060;18.726;2022-10-26T12:11:17;45.20;;;29.10;;
51146;SDS011;37207;53.060;18.726;2022-10-26T12:14:10;49.60;;;31.90;;
51146;SDS011;37207;53.060;18.726;2022-10-26T12:16:57;63.10;;;34.20;;
51146;SDS011;37207;53.060;18.726;2022-10-26T12:19:38;44.70;;;34.70;;
51146;SDS011;37207;53.060;18.726;2022-10-26T12:22:14;39.50;;;28.70;;
51146;SDS011;37207;53.060;18.726;2022-10-26T12:24:43;36.70;;;30.40;;
51146;SDS011;37207;53.060;18.726;2022-10-26T12:27:31;50.30;;;33.80;;
51146;SDS011;37207;53.060;18.726;2022-10-26T12:37:57;57.40;;;38.10;;
51146;SDS011;37207;53.060;18.726;2022-10-26T12:45:45;54.70;;;37.40;;
51146;SDS011;37207;53.060;18.726;2022-10-26T12:48:45;59.10;;;39.90;;
51146;SDS011;37207;53.060;18.726;2022-10-26T12:53:49;52.20;;;34.20;;
51146;SDS011;37207;53.060;18.726;2022-10-26T12:56:29;52.90;;;36.90;;
51146;SDS011;37207;53.060;18.726;2022-10-26T12:59:21;55.40;;;36.70;;
51146;SDS011;37207;53.060;18.726;2022-10-26T13:07:33;46.20;;;32.40;;
51146;SDS011;37207;53.060;18.726;2022-10-26T13:10:03;55.50;;;32.80;;
51146;SDS011;37207;53.060;18.726;2022-10-26T13:12:51;45.90;;;31.00;;
51146;SDS011;37207;53.060;18.726;2022-10-26T13:15:25;50.80;;;31.10;;
51146;SDS011;37207;53.060;18.726;2022-10-26T13:17:58;43.70;;;29.70;;
51146;SDS011;37207;53.060;18.726;2022-10-26T13:20:29;38.30;;;28.30;;
51146;SDS011;37207;53.060;18.726;2022-10-26T13:22:56;46.20;;;30.30;;
51146;SDS011;37207;53.060;18.726;2022-10-26T13:25:24;49.70;;;29.90;;
51146;SDS011;37207;53.060;18.726;2022-10-26T13:28:03;49.50;;;30.50;;
51146;SDS011;37207;53.060;18.726;2022-10-26T13:30:43;48.60;;;29.10;;
51146;SDS011;37207;53.060;18.726;2022-10-26T13:33:16;42.20;;;27.90;;
51146;SDS011;37207;53.060;18.726;2022-10-26T13:35:47;48.50;;;30.10;;
51146;SDS011;37207;53.060;18.726;2022-10-26T13:38:17;46.30;;;29.70;;
51146;SDS011;37207;53.060;18.726;2022-10-26T13:40:47;43.50;;;28.80;;
51146;SDS011;37207;53.060;18.726;2022-10-26T13:43:18;51.90;;;32.60;;
51146;SDS011;37207;53.060;18.726;2022-10-26T13:46:01;52.90;;;33.20;;
51146;SDS011;37207;53.060;18.726;2022-10-26T13:48:39;56.50;;;35.90;;
51146;SDS011;37207;53.060;18.726;2022-10-26T13:51:29;53.30;;;35.60;;
51146;SDS011;37207;53.060;18.726;2022-10-26T13:54:11;51.70;;;34.40;;
51146;SDS011;37207;53.060;18.726;2022-10-26T13:59:23;56.10;;;34.70;;
51146;SDS011;37207;53.060;18.726;2022-10-26T14:02:07;49.30;;;32.10;;
51146;SDS011;37207;53.060;18.726;2022-10-26T14:04:39;37.80;;;28.90;;
51146;SDS011;37207;53.060;18.726;2022-10-26T14:07:10;29.50;;;24.30;;
51146;SDS011;37207;53.060;18.726;2022-10-26T14:09:43;38.10;;;25.50;;
51146;SDS011;37207;53.060;18.726;2022-10-26T14:12:14;40.40;;;27.10;;
51146;SDS011;37207;53.060;18.726;2022-10-26T14:14:41;60.70;;;33.40;;
51146;SDS011;37207;53.060;18.726;2022-10-26T14:17:14;70.40;;;39.30;;
51146;SDS011;37207;53.060;18.726;2022-10-26T14:19:44;63.50;;;41.40;;
51146;SDS011;37207;53.060;18.726;2022-10-26T14:22:18;51.60;;;34.30;;
51146;SDS011;37207;53.060;18.726;2022-10-26T14:24:53;68.30;;;37.70;;
51146;SDS011;37207;53.060;18.726;2022-10-26T14:27:26;61.60;;;35.90;;
51146;SDS011;37207;53.060;18.726;2022-10-26T14:29:56;103.40;;;45.40;;
51146;SDS011;37207;53.060;18.726;2022-10-26T14:32:25;154.90;;;61.40;;
51146;SDS011;37207;53.060;18.726;2022-10-26T14:34:54;124.60;;;49.90;;
51146;SDS011;37207;53.060;18.726;2022-10-26T14:37:23;100.10;;;44.80;;
51146;SDS011;37207;53.060;18.726;2022-10-26T14:40:03;67.20;;;33.80;;
51146;SDS011;37207;53.060;18.726;2022-10-26T14:42:31;52.40;;;30.50;;
51146;SDS011;37207;53.060;18.726;2022-10-26T14:45:01;41.10;;;30.00;;
51146;SDS011;37207;53.060;18.726;2022-10-26T14:47:31;34.80;;;27.30;;
51146;SDS011;37207;53.060;18.726;2022-10-26T14:50:00;58.20;;;34.40;;
51146;SDS011;37207;53.060;18.726;2022-10-26T14:52:29;49.20;;;33.70;;
51146;SDS011;37207;53.060;18.726;2022-10-26T14:55:12;53.30;;;34.80;;
51146;SDS011;37207;53.060;18.726;2022-10-26T14:57:41;42.20;;;30.30;;
51146;SDS011;37207;53.060;18.726;2022-10-26T15:00:17;38.80;;;29.30;;
51146;SDS011;37207;53.060;18.726;2022-10-26T15:02:55;59.70;;;43.20;;
51146;SDS011;37207;53.060;18.726;2022-10-26T15:07:49;37.20;;;32.30;;
51146;SDS011;37207;53.060;18.726;2022-10-26T15:15:53;25.90;;;23.40;;
51146;SDS011;37207;53.060;18.726;2022-10-26T15:18:23;23.20;;;20.90;;
51146;SDS011;37207;53.060;18.726;2022-10-26T15:20:52;22.80;;;20.50;;
51146;SDS011;37207;53.060;18.726;2022-10-26T15:23:19;21.80;;;19.60;;
51146;SDS011;37207;53.060;18.726;2022-10-26T15:25:54;22.60;;;20.10;;
51146;SDS011;37207;53.060;18.726;2022-10-26T15:28:24;36.50;;;23.40;;
51146;SDS011;37207;53.060;18.726;2022-10-26T15:31:01;105.30;;;52.60;;
51146;SDS011;37207;53.060;18.726;2022-10-26T15:33:31;107.20;;;52.90;;
51146;SDS011;37207;53.060;18.726;2022-10-26T15:36:09;84.90;;;48.00;;
51146;SDS011;37207;53.060;18.726;2022-10-26T15:38:37;65.50;;;37.00;;
51146;SDS011;37207;53.060;18.726;2022-10-26T15:41:05;46.40;;;31.20;;
51146;SDS011;37207;53.060;18.726;2022-10-26T15:43:38;42.40;;;31.90;;
51146;SDS011;37207;53.060;18.726;2022-10-26T15:46:05;55.70;;;37.40;;
51146;SDS011;37207;53.060;18.726;2022-10-26T15:48:31;52.70;;;36.30;;
51146;SDS011;37207;53.060;18.726;2022-10-26T15:50:59;34.30;;;25.20;;
51146;SDS011;37207;53.060;18.726;2022-10-26T15:53:26;44.80;;;28.40;;
51146;SDS011;37207;53.060;18.726;2022-10-26T15:55:53;49.40;;;27.60;;
51146;SDS011;37207;53.060;18.726;2022-10-26T15:58:22;51.30;;;31.70;;
51146;SDS011;37207;53.060;18.726;2022-10-26T16:00:49;62.20;;;36.60;;
51146;SDS011;37207;53.060;18.726;2022-10-26T16:03:20;88.90;;;43.50;;
51146;SDS011;37207;53.060;18.726;2022-10-26T16:05:58;82.70;;;40.50;;
51146;SDS011;37207;53.060;18.726;2022-10-26T16:08:27;48.30;;;30.70;;
51146;SDS011;37207;53.060;18.726;2022-10-26T16:10:56;49.00;;;31.40;;
51146;SDS011;37207;53.060;18.726;2022-10-26T16:13:23;47.70;;;29.30;;
51146;SDS011;37207;53.060;18.726;2022-10-26T16:15:49;56.60;;;34.60;;
51146;SDS011;37207;53.060;18.726;2022-10-26T16:18:16;129.90;;;67.30;;
51146;SDS011;37207;53.060;18.726;2022-10-26T16:20:44;164.70;;;92.40;;
51146;SDS011;37207;53.060;18.726;2022-10-26T16:23:11;84.00;;;53.10;;
51146;SDS011;37207;53.060;18.726;2022-10-26T16:25:42;54.20;;;40.00;;
51146;SDS011;37207;53.060;18.726;2022-10-26T16:28:12;58.40;;;37.50;;
51146;SDS011;37207;53.060;18.726;2022-10-26T16:30:41;67.80;;;46.20;;
51146;SDS011;37207;53.060;18.726;2022-10-26T16:33:08;126.30;;;69.50;;
51146;SDS011;37207;53.060;18.726;2022-10-26T16:35:34;123.00;;;70.40;;
51146;SDS011;37207;53.060;18.726;2022-10-26T16:38:01;121.00;;;68.80;;
51146;SDS011;37207;53.060;18.726;2022-10-26T16:40:28;119.10;;;68.20;;
51146;SDS011;37207;53.060;18.726;2022-10-26T16:42:54;111.00;;;60.60;;
51146;SDS011;37207;53.060;18.726;2022-10-26T16:45:21;110.00;;;62.00;;
51146;SDS011;37207;53.060;18.726;2022-10-26T16:47:48;141.50;;;68.30;;